Time;durP1;ratioP1;P1;durP2;ratioP2;P2;SDS_P1;SDS_P2;PMS_P1;PMS_P2;Temp;Humidity;BMP_temperature;BMP_pressure;BME280_temperature;BME280_humidity;BME280_pressure;Samples;Min_cycle;Max_cycle;Signal;HPM_P1;HPM_P2
2023/10/07 00:01:52;;;;;;;15.07;6.80;;;;;;;12.51;100.00;100560.94;12160566;19;20549;-79
2023/10/07 00:06:00;;;;;;;13.57;7.00;;;;;;;12.48;100.00;100555.88;12178705;19;20077;-79
2023/10/07 00:10:05;;;;;;;17.83;7.47;;;;;;;12.46;100.00;100558.06;12160920;19;20006;-80
2023/10/07 00:14:09;;;;;;;18.45;6.80;;;;;;;12.46;100.00;100557.22;12180374;19;20385;-80
2023/10/07 00:18:16;;;;;;;21.13;7.18;;;;;;;12.45;100.00;100552.78;12177468;19;20003;-79
2023/10/07 00:22:19;;;;;;;19.30;6.10;;;;;;;12.44;100.00;100545.59;12149293;19;20011;-79
2023/10/07 00:26:21;;;;;;;13.77;6.25;;;;;;;12.40;100.00;100552.66;12182705;19;20024;-79
2023/10/07 00:30:28;;;;;;;16.58;6.45;;;;;;;12.38;100.00;100549.31;12179378;19;20106;-80
2023/10/07 00:34:31;;;;;;;15.75;6.07;;;;;;;12.36;100.00;100546.78;12162468;19;20841;-80
2023/10/07 00:38:41;;;;;;;14.32;6.45;;;;;;;12.32;100.00;100542.84;12180164;19;20006;-79
2023/10/07 00:42:47;;;;;;;17.85;6.40;;;;;;;12.31;100.00;100535.63;12174833;19;20027;-80
2023/10/07 00:51:11;;;;;;;15.73;6.18;;;;;;;12.28;100.00;100534.22;12172945;19;20473;-80
2023/10/07 00:55:19;;;;;;;17.15;6.22;;;;;;;12.27;100.00;100529.75;12156437;19;20007;-80
2023/10/07 00:59:24;;;;;;;19.95;6.72;;;;;;;12.27;100.00;100531.66;12175057;19;20299;-80
2023/10/07 01:07:28;;;;;;;14.30;6.95;;;;;;;12.24;100.00;100526.63;12152850;19;20007;-79
2023/10/07 01:11:30;;;;;;;14.45;6.07;;;;;;;12.21;100.00;100525.19;12169092;19;20034;-80
2023/10/07 01:15:35;;;;;;;15.30;6.50;;;;;;;12.18;100.00;100531.19;12174777;19;20078;-81
2023/10/07 01:19:44;;;;;;;15.25;6.75;;;;;;;12.19;100.00;100534.81;12155064;19;20007;-81
2023/10/07 01:23:46;;;;;;;14.77;6.75;;;;;;;12.17;100.00;100524.00;12169970;19;20022;-79
2023/10/07 01:27:53;;;;;;;15.40;6.03;;;;;;;12.18;100.00;100509.09;12174158;19;20066;-80
2023/10/07 01:32:04;;;;;;;17.85;6.32;;;;;;;12.18;100.00;100511.03;12150352;19;20010;-80
2023/10/07 01:36:30;;;;;;;13.77;6.40;;;;;;;12.19;100.00;100504.41;12187166;19;20074;-81
2023/10/07 01:40:33;;;;;;;14.95;6.15;;;;;;;12.16;100.00;100502.97;12171108;19;21258;-80
2023/10/07 01:44:39;;;;;;;17.23;6.75;;;;;;;12.13;100.00;100510.91;12187005;19;20013;-80
2023/10/07 01:48:49;;;;;;;16.45;7.45;;;;;;;12.12;100.00;100517.53;12182142;19;20014;-80
2023/10/07 01:52:55;;;;;;;14.55;6.03;;;;;;;12.08;100.00;100523.53;12163656;19;20011;-80
2023/10/07 01:56:57;;;;;;;18.08;7.07;;;;;;;12.09;100.00;100527.13;12183556;19;20014;-81
2023/10/07 02:00:59;;;;;;;15.35;6.20;;;;;;;12.11;100.00;100540.72;12188521;19;20021;-81
2023/10/07 02:05:06;;;;;;;22.83;6.65;;;;;;;12.12;100.00;100539.63;12205923;19;20010;-80
2023/10/07 02:09:10;;;;;;;15.63;6.82;;;;;;;12.07;100.00;100537.56;12190956;19;21301;-79
2023/10/07 02:13:14;;;;;;;18.60;7.10;;;;;;;12.06;100.00;100533.97;12166641;19;20014;-80
2023/10/07 02:17:19;;;;;;;22.02;8.45;;;;;;;12.07;100.00;100532.06;12190448;19;20036;-81
2023/10/07 02:21:26;;;;;;;18.05;7.32;;;;;;;12.05;100.00;100542.53;12188739;19;20034;-80
2023/10/07 02:25:29;;;;;;;17.85;7.25;;;;;;;12.04;100.00;100540.81;12164051;19;20013;-79
2023/10/07 02:29:34;;;;;;;19.77;7.22;;;;;;;12.04;100.00;100540.81;12200896;19;19999;-81
2023/10/07 02:33:42;;;;;;;14.07;6.38;;;;;;;12.01;100.00;100558.72;12213098;19;21564;-81
2023/10/07 02:37:49;;;;;;;15.90;6.20;;;;;;;11.97;100.00;100556.69;12179896;19;20009;-81
2023/10/07 02:41:52;;;;;;;14.80;6.15;;;;;;;11.97;100.00;100556.69;12189367;19;20026;-81
2023/10/07 02:45:59;;;;;;;19.63;7.07;;;;;;;11.92;100.00;100551.88;12186675;19;20003;-81
2023/10/07 02:50:01;;;;;;;16.17;7.13;;;;;;;11.90;100.00;100554.06;12161401;19;19998;-80
2023/10/07 02:54:20;;;;;;;19.70;7.00;;;;;;;11.88;100.00;100544.34;12183776;19;20078;-80
2023/10/07 02:58:27;;;;;;;18.83;8.43;;;;;;;11.85;100.00;100546.50;12167715;19;21199;-80
2023/10/07 03:02:48;;;;;;;18.17;6.95;;;;;;;11.79;100.00;100541.91;12196757;19;20003;-80
2023/10/07 03:06:52;;;;;;;19.63;7.47;;;;;;;11.77;100.00;100544.03;12196255;19;20006;-80
2023/10/07 03:11:03;;;;;;;19.20;6.15;;;;;;;11.70;100.00;100548.84;12166176;19;20030;-80
2023/10/07 03:15:20;;;;;;;15.35;6.22;;;;;;;11.68;100.00;100548.25;12191710;19;20014;-81
2023/10/07 03:19:22;;;;;;;18.45;7.47;;;;;;;11.61;100.00;100544.78;12166751;19;20014;-81
2023/10/07 03:23:26;;;;;;;15.90;6.85;;;;;;;11.59;100.00;100546.91;12187399;19;20010;-81
2023/10/07 03:27:28;;;;;;;16.90;6.60;;;;;;;11.57;100.00;100538.03;12188488;19;20030;-80
2023/10/07 03:31:47;;;;;;;20.23;6.90;;;;;;;11.54;100.00;100539.38;12161464;19;21245;-81
2023/10/07 03:36:30;;;;;;;17.30;7.45;;;;;;;11.54;100.00;100539.38;12181371;19;20066;-80
2023/10/07 03:40:34;;;;;;;19.90;7.43;;;;;;;11.52;100.00;100541.53;12180620;19;20019;-80
2023/10/07 03:44:37;;;;;;;16.75;6.65;;;;;;;11.48;100.00;100534.81;12203357;19;19999;-79
2023/10/07 03:48:40;;;;;;;20.10;7.53;;;;;;;11.46;100.00;100522.31;12200075;19;20006;-80
2023/10/07 03:52:42;;;;;;;17.98;6.85;;;;;;;11.46;100.00;100536.97;12168203;19;20011;-80
2023/10/07 03:56:49;;;;;;;16.15;7.00;;;;;;;11.47;100.00;100549.66;12182178;19;20380;-81
2023/10/07 04:00:51;;;;;;;16.90;7.60;;;;;;;11.45;100.00;100540.81;12181876;19;20045;-81
2023/10/07 04:05:03;;;;;;;18.45;6.70;;;;;;;11.42;100.00;100532.97;12156676;19;20533;-80
2023/10/07 04:09:08;;;;;;;18.85;7.63;;;;;;;11.37;100.00;100519.91;12180423;19;20007;-80
2023/10/07 04:13:11;;;;;;;15.95;6.60;;;;;;;11.36;100.00;100526.50;12159657;19;20013;-80
2023/10/07 04:17:12;;;;;;;19.00;7.38;;;;;;;11.35;100.00;100527.56;12187548;19;20739;-80
2023/10/07 04:21:14;;;;;;;21.38;7.68;;;;;;;11.35;100.00;100511.00;12184234;19;20006;-80
2023/10/07 04:25:17;;;;;;;16.80;6.85;;;;;;;11.35;100.00;100530.31;12159365;19;20021;-81
2023/10/07 04:29:21;;;;;;;19.80;8.02;;;;;;;11.41;100.00;100529.38;12182825;19;20023;-80
2023/10/07 04:33:33;;;;;;;18.45;7.90;;;;;;;11.48;100.00;100533.94;12183318;19;20033;-80
2023/10/07 04:37:47;;;;;;;18.70;7.60;;;;;;;11.54;100.00;100531.09;12161004;19;20078;-81
2023/10/07 04:41:56;;;;;;;16.15;7.53;;;;;;;11.59;100.00;100511.03;12181234;19;20031;-81
2023/10/07 04:46:06;;;;;;;19.85;7.32;;;;;;;11.60;100.00;100521.00;12177764;19;20062;-80
2023/10/07 04:50:15;;;;;;;17.95;7.55;;;;;;;11.70;100.00;100531.47;12153281;19;20085;-81
2023/10/07 04:54:20;;;;;;;16.33;6.90;;;;;;;11.80;100.00;100521.47;12186803;19;20010;-81
2023/10/07 04:58:24;;;;;;;15.93;6.65;;;;;;;11.90;100.00;100531.09;12159023;19;20007;-80
2023/10/07 05:02:26;;;;;;;18.63;7.38;;;;;;;11.98;100.00;100522.47;12174171;19;20014;-81
2023/10/07 05:06:29;;;;;;;13.77;7.00;;;;;;;12.03;100.00;100520.66;12178505;19;20033;-81
2023/10/07 05:10:35;;;;;;;18.13;8.23;;;;;;;12.06;100.00;100519.34;12166769;19;20070;-80
2023/10/07 05:14:37;;;;;;;17.70;7.47;;;;;;;12.09;100.00;100527.97;12192984;19;20007;-80
2023/10/07 05:18:40;;;;;;;18.17;8.77;;;;;;;12.13;100.00;100530.25;12189060;19;20658;-80
2023/10/07 05:22:41;;;;;;;19.08;7.95;;;;;;;12.16;100.00;100518.72;12174554;19;20788;-80
2023/10/07 05:26:43;;;;;;;18.92;8.05;;;;;;;12.21;100.00;100516.91;12193175;19;20026;-80
2023/10/07 05:30:51;;;;;;;22.77;8.88;;;;;;;12.31;100.00;100536.47;12186865;19;20020;-80
2023/10/07 05:34:57;;;;;;;16.20;7.03;;;;;;;12.35;100.00;100538.75;12166070;19;20407;-79
2023/10/07 05:39:00;;;;;;;16.67;7.28;;;;;;;12.41;100.00;100533.09;12190283;19;20010;-80
2023/10/07 05:43:04;;;;;;;16.55;7.90;;;;;;;12.44;100.00;100540.06;12167972;19;20454;-79
2023/10/07 05:47:08;;;;;;;20.38;7.82;;;;;;;12.46;100.00;100547.03;12186391;19;19999;-80
2023/10/07 05:51:11;;;;;;;19.85;7.95;;;;;;;12.46;100.00;100547.03;12181508;19;20027;-80
2023/10/07 05:55:16;;;;;;;15.60;7.38;;;;;;;12.48;100.00;100550.34;12167072;19;20002;-80
2023/10/07 05:59:19;;;;;;;17.02;7.07;;;;;;;12.52;100.00;100561.75;12189598;19;20011;-79
2023/10/07 06:03:25;;;;;;;20.90;8.93;;;;;;;12.55;100.00;100555.75;12194240;19;20007;-81
2023/10/07 06:07:27;;;;;;;15.52;7.90;;;;;;;12.52;100.00;100551.56;12177121;19;20473;-81
2023/10/07 06:11:32;;;;;;;18.10;8.68;;;;;;;12.53;100.00;100564.28;12196108;19;20007;-81
2023/10/07 06:15:37;;;;;;;17.42;7.95;;;;;;;12.52;100.00;100556.22;12195571;19;20006;-81
2023/10/07 06:19:40;;;;;;;18.95;8.55;;;;;;;12.47;100.00;100542.31;12169234;19;20002;-80
2023/10/07 06:23:42;;;;;;;21.48;8.52;;;;;;;12.51;100.00;100541.56;12202144;19;20042;-81
2023/10/07 06:27:44;;;;;;;16.10;7.63;;;;;;;12.54;100.00;100543.84;12208694;19;20007;-80
2023/10/07 06:36:12;;;;;;;20.58;7.70;;;;;;;12.52;100.00;100551.56;12205370;19;20015;-80
2023/10/07 06:40:29;;;;;;;;;;;;;;;12.57;100.00;100564.63;12186322;19;20010;-81
2023/10/07 06:44:31;;;;;;;16.67;7.45;;;;;;;12.63;100.00;100566.41;12198297;19;19914;-81
2023/10/07 06:48:33;;;;;;;18.88;7.68;;;;;;;12.67;100.00;100570.41;12195370;19;20005;-81
2023/10/07 06:52:36;;;;;;;14.98;7.97;;;;;;;12.70;100.00;100569.91;12174428;19;20007;-81
2023/10/07 06:56:39;;;;;;;16.90;8.10;;;;;;;12.74;100.00;100570.25;12197780;19;20014;-81
2023/10/07 07:00:47;;;;;;;22.42;9.25;;;;;;;12.78;100.00;100576.97;12198008;19;20014;-80
2023/10/07 07:04:51;;;;;;;17.95;8.20;;;;;;;12.80;100.00;100579.50;12173520;19;20002;-80
2023/10/07 07:08:52;;;;;;;17.58;8.30;;;;;;;12.84;100.00;100580.66;12216767;19;20006;-80
2023/10/07 07:13:12;;;;;;;19.38;7.60;;;;;;;12.86;100.00;100587.63;12250426;19;19999;-80
2023/10/07 07:17:29;;;;;;;15.77;7.28;;;;;;;12.93;100.00;100582.78;12218629;19;20697;-80
2023/10/07 07:21:36;;;;;;;19.92;7.35;;;;;;;12.95;100.00;100593.63;12202986;19;20026;-80
2023/10/07 07:25:39;;;;;;;16.33;7.68;;;;;;;12.98;100.00;100596.72;12181098;19;20019;-79
2023/10/07 07:29:45;;;;;;;17.85;7.50;;;;;;;13.08;100.00;100612.69;12235751;19;20014;-80
2023/10/07 07:33:50;;;;;;;15.25;7.68;;;;;;;13.09;100.00;100608.84;12245586;19;20005;-80
2023/10/07 07:37:52;;;;;;;18.02;7.40;;;;;;;13.09;100.00;100617.16;12212290;19;20006;-80
2023/10/07 07:41:55;;;;;;;18.55;7.35;;;;;;;13.14;100.00;100627.47;12235288;19;20085;-79
2023/10/07 07:50:19;;;;;;;15.60;7.15;;;;;;;13.31;100.00;100638.63;12217260;19;20013;-80
2023/10/07 07:54:24;;;;;;;19.65;7.72;;;;;;;13.36;100.00;100639.56;12227126;19;20007;-80
2023/10/07 07:58:26;;;;;;;18.38;8.32;;;;;;;13.41;100.00;100627.72;12187897;19;20006;-80
2023/10/07 08:02:28;;;;;;;20.45;8.13;;;;;;;13.44;100.00;100618.91;12203592;19;20015;-80
2023/10/07 08:06:31;;;;;;;16.57;7.27;;;;;;;13.52;100.00;100610.22;12202858;19;20010;-80
2023/10/07 08:10:35;;;;;;;23.67;7.90;;;;;;;13.66;100.00;100611.56;12177973;19;19999;-80
2023/10/07 08:14:37;;;;;;;18.05;7.22;;;;;;;13.76;100.00;100615.59;12202794;19;20034;-81
2023/10/07 08:18:40;;;;;;;16.77;6.80;;;;;;;13.96;100.00;100618.72;12200171;19;20020;-79
2023/10/07 08:22:45;;;;;;;16.05;7.82;;;;;;;14.17;100.00;100633.72;12175364;19;20010;-80
2023/10/07 08:26:59;;;;;;;15.82;7.63;;;;;;;14.38;100.00;100645.97;12196329;19;20501;-80
2023/10/07 08:31:13;;;;;;;18.85;6.75;;;;;;;14.64;100.00;100643.59;12172995;19;20009;-81
2023/10/07 08:35:16;;;;;;;14.80;6.28;;;;;;;14.84;100.00;100654.09;12202713;19;20010;-80
2023/10/07 08:39:26;;;;;;;16.35;7.22;;;;;;;15.07;100.00;100650.22;12194067;19;20037;-81
2023/10/07 08:43:37;;;;;;;16.90;6.35;;;;;;;15.35;100.00;100650.03;12174176;19;20006;-80
2023/10/07 08:47:49;;;;;;;17.92;6.97;;;;;;;15.45;100.00;100641.78;12205179;19;20011;-80
2023/10/07 08:51:56;;;;;;;14.77;6.75;;;;;;;15.60;100.00;100640.25;12203822;19;20018;-80
2023/10/07 08:56:04;;;;;;;14.15;7.00;;;;;;;15.82;100.00;100631.88;12181316;19;20010;-80
2023/10/07 09:00:11;;;;;;;15.52;8.25;;;;;;;16.02;100.00;100634.81;12197811;19;20017;-81
2023/10/07 09:04:13;;;;;;;15.57;7.65;;;;;;;16.22;100.00;100634.16;12179649;19;20019;-80
2023/10/07 09:08:15;;;;;;;15.35;6.60;;;;;;;16.44;100.00;100631.22;12201920;19;20538;-80
2023/10/07 09:12:30;;;;;;;16.10;7.15;;;;;;;16.78;98.45;100631.72;12202669;19;20010;-80
2023/10/07 09:16:32;;;;;;;15.77;6.35;;;;;;;17.04;93.96;100634.59;12181947;19;20463;-80
2023/10/07 09:20:43;;;;;;;11.52;6.38;;;;;;;17.17;93.95;100636.06;12203457;19;20007;-80
2023/10/07 09:24:45;;;;;;;15.80;6.47;;;;;;;17.16;92.34;100637.97;12201033;19;20070;-80
2023/10/07 09:28:51;;;;;;;17.15;6.28;;;;;;;17.06;91.67;100626.81;12176423;19;20011;-79
2023/10/07 09:32:58;;;;;;;16.48;6.85;;;;;;;17.06;93.20;100629.59;12200107;19;20018;-80
2023/10/07 09:37:08;;;;;;;13.70;6.50;;;;;;;16.96;93.71;100618.44;12190926;19;20087;-80
2023/10/07 09:41:23;;;;;;;17.80;6.65;;;;;;;17.06;93.59;100616.50;12203182;19;20086;-80
2023/10/07 09:45:32;;;;;;;12.82;6.47;;;;;;;17.14;93.42;100605.97;12198720;19;20026;-80
2023/10/07 09:49:36;;;;;;;14.75;6.47;;;;;;;17.34;91.91;100619.94;12175054;19;20134;-80
2023/10/07 09:53:55;;;;;;;14.60;6.63;;;;;;;17.51;91.79;100612.16;12197189;19;20010;-81
2023/10/07 09:58:17;;;;;;;14.65;5.53;;;;;;;17.60;90.32;100620.81;12195700;19;20474;-80
2023/10/07 10:02:32;;;;;;;17.05;6.35;;;;;;;17.64;91.12;100619.16;12174501;19;20006;-81
2023/10/07 10:06:52;;;;;;;12.23;6.03;;;;;;;17.74;91.09;100608.00;12208006;19;20019;-81
2023/10/07 10:10:58;;;;;;;15.32;7.80;;;;;;;17.74;90.97;100598.81;12188423;19;21163;-80
2023/10/07 10:19:47;;;;;;;13.55;6.65;;;;;;;18.13;90.44;100607.47;12188063;19;20002;-80
2023/10/07 10:23:51;;;;;;;19.63;7.40;;;;;;;17.96;87.41;100609.69;12231269;19;20042;-82
2023/10/07 10:28:03;;;;;;;16.85;6.50;;;;;;;17.86;89.73;100616.13;12234928;19;20014;-81
2023/10/07 10:32:16;;;;;;;14.52;5.82;;;;;;;17.67;89.38;100626.13;12193521;19;20006;-81
2023/10/07 10:36:22;;;;;;;15.48;6.28;;;;;;;17.73;90.90;100617.50;12197719;19;20081;-81
2023/10/07 10:40:31;;;;;;;11.95;6.05;;;;;;;17.76;90.85;100630.88;12176725;19;20025;-81
2023/10/07 10:44:49;;;;;;;15.23;6.20;;;;;;;18.09;90.25;100636.22;12191820;19;20010;-81
2023/10/07 10:50:10;;;;;;;15.25;6.47;;;;;;;18.63;88.04;100621.59;12079047;19;20033;-81
2023/10/07 10:55:00;;;;;;;;;;;;;;;18.78;86.19;100615.97;11949717;19;2004631;-81
2023/10/07 10:59:58;;;;;;;10.32;5.30;;;;;;;18.97;87.38;100601.38;12152143;19;19945;-81
2023/10/07 11:04:51;;;;;;;;;;;;;;;;;;;;;
2023/10/07 11:15:13;;;;;;;10.60;5.22;;;;;;;20.05;79.26;100596.75;12068937;19;2005007;-80
2023/10/07 11:19:23;;;;;;;12.65;5.30;;;;;;;19.85;79.59;100580.16;12166741;19;20013;-81
2023/10/07 11:24:01;;;;;;;17.17;6.03;;;;;;;19.52;80.87;100580.66;12173841;19;20090;-81
2023/10/07 11:28:41;;;;;;;11.32;4.93;;;;;;;20.02;80.90;100570.19;12174367;19;20006;-81
2023/10/07 11:33:25;;;;;;;10.05;4.95;;;;;;;21.10;75.14;100577.34;12174263;19;20415;-81
2023/10/07 11:38:11;;;;;;;12.50;4.63;;;;;;;21.24;74.09;100575.47;12172502;19;20029;-81
2023/10/07 11:42:41;;;;;;;10.95;4.63;;;;;;;21.70;75.49;100574.78;12142064;19;20134;-81
2023/10/07 11:47:15;;;;;;;15.02;5.32;;;;;;;22.26;68.16;100562.59;12173109;19;20011;-81
2023/10/07 11:51:41;;;;;;;11.90;6.18;;;;;;;22.71;65.84;100554.38;12143459;19;20007;-81
2023/10/07 11:56:11;;;;;;;12.80;5.57;;;;;;;23.23;63.47;100544.84;12171884;19;20041;-81
2023/10/07 12:00:23;;;;;;;12.30;5.38;;;;;;;23.63;62.01;100543.03;12175489;19;20011;-83
2023/10/07 12:04:47;;;;;;;12.63;5.38;;;;;;;23.77;58.11;100552.28;12149191;19;20090;-81
2023/10/07 12:13:19;;;;;;;10.93;4.60;;;;;;;24.32;57.31;100528.56;12173839;19;20886;-81
2023/10/07 12:17:26;;;;;;;6.80;3.90;;;;;;;24.90;56.10;100530.25;12175566;19;20015;-81
2023/10/07 12:36:24;;;;;;;9.82;3.85;;;;;;;23.44;58.73;100534.78;12168353;19;20090;-80
2023/10/07 12:40:31;;;;;;;7.88;4.00;;;;;;;24.23;56.97;100539.78;12123195;19;20426;-81
2023/10/07 12:44:40;;;;;;;9.00;4.60;;;;;;;24.70;52.56;100539.34;12183391;19;20741;-80
2023/10/07 12:48:42;;;;;;;7.63;3.92;;;;;;;25.12;52.65;100532.09;12172642;19;20014;-80
2023/10/07 12:52:43;;;;;;;7.70;3.88;;;;;;;25.32;51.47;100533.50;12147354;19;20017;-80
2023/10/07 12:56:46;;;;;;;8.70;3.95;;;;;;;25.48;49.93;100538.63;12170172;19;20386;-81
2023/10/07 13:00:51;;;;;;;11.82;3.53;;;;;;;24.96;51.97;100534.59;12169710;19;20010;-80
2023/10/07 13:04:55;;;;;;;10.05;4.30;;;;;;;24.19;52.86;100532.31;12146626;19;20003;-80
2023/10/07 13:09:02;;;;;;;9.45;3.90;;;;;;;23.53;54.81;100546.09;12165454;19;20021;-80
2023/10/07 13:13:04;;;;;;;8.18;3.88;;;;;;;23.15;55.80;100547.25;12150315;19;20010;-80
2023/10/07 13:17:07;;;;;;;11.70;3.78;;;;;;;22.75;57.24;100552.63;12169756;19;20014;-80
2023/10/07 13:21:19;;;;;;;8.80;4.07;;;;;;;22.73;57.38;100534.41;12166828;19;20011;-79
2023/10/07 13:25:21;;;;;;;12.60;4.13;;;;;;;23.07;57.27;100539.56;12152864;19;20022;-80
2023/10/07 13:29:23;;;;;;;10.75;4.30;;;;;;;23.03;56.38;100532.09;12178516;19;20010;-80
2023/10/07 13:33:25;;;;;;;12.43;4.00;;;;;;;22.84;57.11;100521.78;12186984;19;20762;-79
2023/10/07 13:37:27;;;;;;;8.93;3.97;;;;;;;22.50;58.35;100536.28;12159027;19;20028;-80
2023/10/07 13:41:29;;;;;;;6.82;3.22;;;;;;;22.16;59.11;100529.06;12180473;19;20010;-80
2023/10/07 13:45:31;;;;;;;7.53;3.60;;;;;;;21.88;60.69;100527.34;12189426;19;20030;-80
2023/10/07 13:49:33;;;;;;;7.35;3.50;;;;;;;21.73;61.24;100525.66;12162221;19;20010;-79
2023/10/07 13:53:51;;;;;;;10.68;3.47;;;;;;;21.58;63.03;100523.94;12184150;19;20003;-81
2023/10/07 13:57:55;;;;;;;8.48;4.75;;;;;;;21.41;63.01;100523.66;12183226;19;20027;-81
2023/10/07 14:01:58;;;;;;;11.82;4.05;;;;;;;21.23;64.07;100520.53;12159621;19;20014;-80
2023/10/07 14:06:06;;;;;;;7.78;3.47;;;;;;;21.12;64.62;100519.03;12186172;19;20042;-80
2023/10/07 14:10:09;;;;;;;11.35;4.00;;;;;;;21.12;65.61;100510.66;12162293;19;20038;-80
2023/10/07 14:14:13;;;;;;;8.35;3.75;;;;;;;21.07;65.48;100513.50;12186258;19;20006;-79
2023/10/07 14:18:23;;;;;;;8.20;3.42;;;;;;;20.96;65.48;100510.00;12189162;19;20002;-81
2023/10/07 14:22:28;;;;;;;15.02;3.92;;;;;;;21.03;65.53;100509.63;12167887;19;21850;-80
2023/10/07 14:26:34;;;;;;;9.40;3.73;;;;;;;21.04;65.15;100508.50;12182184;19;20007;-79
2023/10/07 14:30:36;;;;;;;8.15;3.85;;;;;;;21.07;64.89;100503.13;12181489;19;20463;-79
2023/10/07 14:34:38;;;;;;;10.63;4.93;;;;;;;21.16;64.79;100494.88;12154871;19;20007;-79
2023/10/07 14:38:42;;;;;;;9.30;3.50;;;;;;;21.21;65.36;100494.81;12176714;19;20806;-79
2023/10/07 14:42:45;;;;;;;9.10;3.70;;;;;;;21.23;65.00;100500.09;12178374;19;20333;-79
2023/10/07 14:46:48;;;;;;;6.22;3.50;;;;;;;21.32;64.85;100498.25;12154781;19;20054;-79
2023/10/07 14:50:50;;;;;;;9.90;4.10;;;;;;;21.29;64.22;100510.06;12170243;19;20863;-79
2023/10/07 14:54:54;;;;;;;10.57;3.37;;;;;;;21.27;64.47;100501.16;12174851;19;20018;-79
2023/10/07 14:58:56;;;;;;;8.85;3.72;;;;;;;21.39;64.32;100496.78;12152066;19;20026;-79
2023/10/07 15:03:00;;;;;;;8.97;4.00;;;;;;;21.42;64.80;100492.53;12178816;19;20011;-81
2023/10/07 15:07:06;;;;;;;7.25;3.38;;;;;;;21.39;65.02;100488.38;12160449;19;20010;-80
2023/10/07 15:11:08;;;;;;;12.10;3.92;;;;;;;21.25;65.63;100497.81;12179724;19;20034;-79
2023/10/07 15:15:13;;;;;;;8.73;3.87;;;;;;;21.08;65.77;100506.75;12183998;19;20079;-79
2023/10/07 15:19:15;;;;;;;6.85;3.55;;;;;;;21.03;66.74;100509.63;12164479;19;20924;-80
2023/10/07 15:23:17;;;;;;;8.03;3.73;;;;;;;21.01;67.65;100497.91;12182007;19;20105;-79
2023/10/07 15:27:19;;;;;;;10.43;4.03;;;;;;;21.01;68.01;100497.91;12181366;19;20010;-80
2023/10/07 15:31:22;;;;;;;8.65;3.70;;;;;;;20.99;68.04;100494.56;12167021;19;21554;-82
2023/10/07 15:35:24;;;;;;;7.82;4.03;;;;;;;20.84;68.16;100496.47;12192544;19;20010;-80
2023/10/07 15:39:28;;;;;;;8.10;4.27;;;;;;;20.83;67.83;100488.38;12186376;19;20006;-80
2023/10/07 15:43:30;;;;;;;10.13;4.10;;;;;;;20.83;68.44;100486.41;12165332;19;20296;-79
2023/10/07 15:47:32;;;;;;;10.17;4.73;;;;;;;20.77;68.76;100498.81;12183943;19;20002;-79
2023/10/07 15:51:35;;;;;;;7.60;3.47;;;;;;;20.73;68.59;100488.50;12176364;19;20714;-79
2023/10/07 15:55:36;;;;;;;8.30;3.47;;;;;;;20.65;69.30;100488.03;12160295;19;20003;-80
2023/10/07 15:59:40;;;;;;;8.23;3.53;;;;;;;20.57;69.18;100483.09;12178499;19;20026;-81
2023/10/07 16:03:42;;;;;;;7.00;3.45;;;;;;;20.57;69.40;100479.47;12187472;19;20061;-80
2023/10/07 16:07:44;;;;;;;8.57;4.27;;;;;;;20.43;70.55;100479.34;12159842;19;20007;-80
2023/10/07 16:11:48;;;;;;;6.80;3.72;;;;;;;20.43;70.68;100474.56;12183027;19;20070;-80
2023/10/07 16:15:51;;;;;;;8.45;3.83;;;;;;;20.37;71.56;100477.75;12186558;19;20003;-80
2023/10/07 16:19:55;;;;;;;8.43;4.20;;;;;;;20.32;72.17;100481.44;12157225;19;20021;-80
2023/10/07 16:23:57;;;;;;;9.55;3.97;;;;;;;20.27;72.66;100468.34;12181503;19;20011;-79
2023/10/07 16:27:59;;;;;;;9.40;4.20;;;;;;;20.18;73.38;100472.09;12181596;19;20007;-80
2023/10/07 16:32:01;;;;;;;10.43;4.57;;;;;;;20.12;73.90;100476.09;12157442;19;20077;-79
2023/10/07 16:36:04;;;;;;;10.07;4.45;;;;;;;20.08;74.08;100475.84;12182886;19;20316;-79
2023/10/07 16:40:07;;;;;;;8.00;4.30;;;;;;;20.03;74.67;100479.53;12161413;19;20006;-80
2023/10/07 16:44:09;;;;;;;11.32;4.60;;;;;;;19.96;75.17;100476.28;12177163;19;20006;-79
2023/10/07 16:48:11;;;;;;;12.17;6.07;;;;;;;19.88;76.02;100476.09;12179178;19;20532;-80
2023/10/07 16:52:13;;;;;;;8.90;4.32;;;;;;;19.83;76.40;100471.34;12145410;19;20003;-80
2023/10/07 16:56:15;;;;;;;9.18;4.50;;;;;;;19.81;76.66;100476.44;12170956;19;20003;-80
2023/10/07 17:00:19;;;;;;;13.10;5.27;;;;;;;19.71;77.77;100471.75;12169883;19;21188;-82
2023/10/07 17:04:21;;;;;;;11.23;4.40;;;;;;;19.66;77.79;100469.03;12162526;19;20271;-81
2023/10/07 17:08:24;;;;;;;11.40;4.82;;;;;;;19.61;77.52;100459.81;12194078;19;21113;-81
2023/10/07 17:12:27;;;;;;;8.23;4.03;;;;;;;19.65;77.19;100456.16;12194713;19;20014;-80
2023/10/07 17:16:29;;;;;;;8.45;3.95;;;;;;;19.61;77.22;100474.63;12177619;19;20002;-81
2023/10/07 17:20:39;;;;;;;8.80;3.80;;;;;;;19.58;77.69;100478.00;12202592;19;20010;-81
2023/10/07 17:24:42;;;;;;;13.20;4.25;;;;;;;19.55;77.91;100487.00;12202549;19;20009;-80
2023/10/07 17:28:44;;;;;;;9.55;4.50;;;;;;;19.51;78.37;100485.88;12173827;19;20086;-80
2023/10/07 17:32:46;;;;;;;10.82;4.40;;;;;;;19.44;78.67;100489.03;12189031;19;20002;-80
2023/10/07 17:36:49;;;;;;;9.60;4.18;;;;;;;19.41;79.44;100503.59;12194736;19;20041;-80
2023/10/07 17:40:51;;;;;;;9.25;4.10;;;;;;;19.38;79.58;100501.38;12176263;19;19998;-81
2023/10/07 17:44:53;;;;;;;6.63;3.40;;;;;;;19.38;79.32;100497.75;12198420;19;20094;-80
2023/10/07 17:48:54;;;;;;;9.43;4.05;;;;;;;19.32;79.85;100505.34;12189449;19;20577;-81
2023/10/07 17:52:58;;;;;;;7.40;3.85;;;;;;;19.24;80.59;100500.38;12165338;19;20050;-80
2023/10/07 17:57:00;;;;;;;9.43;4.10;;;;;;;19.14;80.81;100504.06;12188694;19;20041;-80
2023/10/07 18:01:02;;;;;;;10.30;4.27;;;;;;;19.08;81.47;100502.44;12169426;19;20015;-80
2023/10/07 18:05:04;;;;;;;8.40;4.28;;;;;;;19.04;81.89;100512.53;12194648;19;20054;-80
2023/10/07 18:09:10;;;;;;;;;;;;;;;18.99;81.63;100516.19;12185023;19;20026;-80
2023/10/07 18:13:13;;;;;;;9.27;3.95;;;;;;;18.95;82.08;100531.84;12158159;19;19915;-80
2023/10/07 18:17:15;;;;;;;8.45;3.50;;;;;;;18.92;82.10;100531.56;12188170;19;20759;-80
2023/10/07 18:21:17;;;;;;;10.10;4.07;;;;;;;18.89;82.44;100536.63;12186666;19;20007;-81
2023/10/07 18:25:20;;;;;;;8.10;4.78;;;;;;;18.84;83.15;100524.66;12173131;19;20062;-79
2023/10/07 18:29:23;;;;;;;10.30;4.47;;;;;;;18.78;83.20;100523.03;12186762;19;20546;-80
2023/10/07 18:33:24;;;;;;;10.47;4.23;;;;;;;18.76;83.13;100523.28;12185886;19;20006;-82
2023/10/07 18:37:26;;;;;;;14.30;4.35;;;;;;;18.78;82.93;100520.22;12163633;19;20007;-80
2023/10/07 18:41:30;;;;;;;9.00;4.03;;;;;;;18.79;82.86;100507.94;12188770;19;20031;-80
2023/10/07 18:45:32;;;;;;;9.88;4.22;;;;;;;18.79;82.77;100507.94;12196253;19;20006;-80
2023/10/07 18:49:34;;;;;;;10.80;3.90;;;;;;;18.87;81.99;100510.13;12187687;19;20025;-80
2023/10/07 18:53:35;;;;;;;7.45;3.92;;;;;;;18.88;81.74;100514.56;12207487;19;20010;-80
2023/10/07 18:57:39;;;;;;;9.33;3.90;;;;;;;18.92;81.16;100515.69;12196654;19;20006;-80
2023/10/07 19:01:41;;;;;;;6.78;3.78;;;;;;;18.89;81.48;100511.50;12169553;19;20010;-80
2023/10/07 19:05:42;;;;;;;9.45;4.93;;;;;;;18.89;81.04;100499.50;12188365;19;20086;-81
2023/10/07 19:09:44;;;;;;;7.03;3.60;;;;;;;18.89;81.51;100497.53;12187018;19;20019;-80
2023/10/07 19:13:46;;;;;;;7.40;3.85;;;;;;;18.98;80.20;100497.78;12158471;19;20035;-80
2023/10/07 19:17:48;;;;;;;9.27;3.13;;;;;;;19.01;79.82;100477.63;12184409;19;20070;-80
2023/10/07 19:21:50;;;;;;;7.93;4.00;;;;;;;19.00;80.14;100517.84;12180806;19;20017;-81
2023/10/07 19:25:54;;;;;;;9.20;3.43;;;;;;;18.98;79.72;100513.69;12167916;19;20016;-80
2023/10/07 19:29:56;;;;;;;11.52;3.97;;;;;;;18.94;79.91;100520.97;12177474;19;20011;-80